sensor_id;sensor_type;location;lat;lon;timestamp;temperature;humidity
851;DHT22;412;51.400;7.480;2022-09-27T00:01:37;14.70;99.90
851;DHT22;412;51.400;7.480;2022-09-27T00:04:03;14.70;99.90
851;DHT22;412;51.400;7.480;2022-09-27T00:06:30;14.80;99.90
851;DHT22;412;51.400;7.480;2022-09-27T00:08:57;14.80;99.90
851;DHT22;412;51.400;7.480;2022-09-27T00:11:27;14.80;99.90
851;DHT22;412;51.400;7.480;2022-09-27T00:13:54;14.90;99.90
851;DHT22;412;51.400;7.480;2022-09-27T00:16:22;14.90;99.90
851;DHT22;412;51.400;7.480;2022-09-27T00:18:48;14.90;99.90
851;DHT22;412;51.400;7.480;2022-09-27T00:21:14;14.90;99.90
851;DHT22;412;51.400;7.480;2022-09-27T00:23:40;14.90;99.90
851;DHT22;412;51.400;7.480;2022-09-27T00:26:07;14.90;99.90
851;DHT22;412;51.400;7.480;2022-09-27T00:28:35;14.80;99.90
851;DHT22;412;51.400;7.480;2022-09-27T00:31:00;14.80;99.90
851;DHT22;412;51.400;7.480;2022-09-27T00:33:26;14.90;99.90
851;DHT22;412;51.400;7.480;2022-09-27T00:35:52;14.90;99.90
851;DHT22;412;51.400;7.480;2022-09-27T00:38:18;14.80;99.90
851;DHT22;412;51.400;7.480;2022-09-27T00:40:44;14.80;99.90
851;DHT22;412;51.400;7.480;2022-09-27T00:43:15;14.80;99.90
851;DHT22;412;51.400;7.480;2022-09-27T00:45:47;14.70;99.90
851;DHT22;412;51.400;7.480;2022-09-27T00:48:18;14.60;99.90
851;DHT22;412;51.400;7.480;2022-09-27T00:50:50;14.60;99.90
851;DHT22;412;51.400;7.480;2022-09-27T00:53:23;14.60;99.90
851;DHT22;412;51.400;7.480;2022-09-27T00:56:02;14.50;99.90
851;DHT22;412;51.400;7.480;2022-09-27T00:58:33;14.50;99.90
851;DHT22;412;51.400;7.480;2022-09-27T01:01:03;14.50;99.90
851;DHT22;412;51.400;7.480;2022-09-27T01:03:54;14.50;99.90
851;DHT22;412;51.400;7.480;2022-09-27T01:06:21;14.50;99.90
851;DHT22;412;51.400;7.480;2022-09-27T01:08:48;14.50;99.90
851;DHT22;412;51.400;7.480;2022-09-27T01:11:27;14.60;99.90
851;DHT22;412;51.400;7.480;2022-09-27T01:17:30;14.50;99.90
851;DHT22;412;51.400;7.480;2022-09-27T01:20:06;14.50;99.90
851;DHT22;412;51.400;7.480;2022-09-27T01:30:42;14.40;99.90
851;DHT22;412;51.400;7.480;2022-09-27T01:33:16;14.40;99.90
851;DHT22;412;51.400;7.480;2022-09-27T01:44:37;14.30;99.90
851;DHT22;412;51.400;7.480;2022-09-27T01:47:11;14.30;99.90
851;DHT22;412;51.400;7.480;2022-09-27T01:50:45;14.30;99.90
851;DHT22;412;51.400;7.480;2022-09-27T01:52:56;14.30;99.90
851;DHT22;412;51.400;7.480;2022-09-27T01:55:27;14.30;99.90
851;DHT22;412;51.400;7.480;2022-09-27T01:58:00;14.30;99.90
851;DHT22;412;51.400;7.480;2022-09-27T02:00:27;14.30;99.90
851;DHT22;412;51.400;7.480;2022-09-27T02:03:06;14.20;99.90
851;DHT22;412;51.400;7.480;2022-09-27T02:05:38;14.20;99.90
851;DHT22;412;51.400;7.480;2022-09-27T02:10:50;14.20;99.90
851;DHT22;412;51.400;7.480;2022-09-27T02:13:26;14.20;99.90
851;DHT22;412;51.400;7.480;2022-09-27T02:18:40;14.30;99.90
851;DHT22;412;51.400;7.480;2022-09-27T02:21:11;14.30;99.90
851;DHT22;412;51.400;7.480;2022-09-27T02:23:42;14.30;99.90
851;DHT22;412;51.400;7.480;2022-09-27T02:26:19;14.20;99.90
851;DHT22;412;51.400;7.480;2022-09-27T02:29:07;14.20;99.90
851;DHT22;412;51.400;7.480;2022-09-27T02:31:31;14.20;99.90
851;DHT22;412;51.400;7.480;2022-09-27T02:34:21;14.20;99.90
851;DHT22;412;51.400;7.480;2022-09-27T02:36:46;14.20;99.90
851;DHT22;412;51.400;7.480;2022-09-27T02:39:12;14.20;99.90
851;DHT22;412;51.400;7.480;2022-09-27T02:41:38;14.20;99.90
851;DHT22;412;51.400;7.480;2022-09-27T02:44:09;14.20;99.90
851;DHT22;412;51.400;7.480;2022-09-27T02:57:29;14.20;99.90
851;DHT22;412;51.400;7.480;2022-09-27T03:05:18;14.10;99.90
851;DHT22;412;51.400;7.480;2022-09-27T03:07:44;14.10;99.90
851;DHT22;412;51.400;7.480;2022-09-27T03:10:21;14.10;99.90
851;DHT22;412;51.400;7.480;2022-09-27T03:12:47;14.10;99.90
851;DHT22;412;51.400;7.480;2022-09-27T03:15:13;14.10;99.90
851;DHT22;412;51.400;7.480;2022-09-27T03:17:39;14.10;99.90
851;DHT22;412;51.400;7.480;2022-09-27T03:20:05;14.10;99.90
851;DHT22;412;51.400;7.480;2022-09-27T03:22:31;14.10;99.90
851;DHT22;412;51.400;7.480;2022-09-27T03:24:57;14.10;99.90
851;DHT22;412;51.400;7.480;2022-09-27T03:27:23;14.10;99.90
851;DHT22;412;51.400;7.480;2022-09-27T03:29:49;14.00;99.90
851;DHT22;412;51.400;7.480;2022-09-27T03:32:14;14.00;99.90
851;DHT22;412;51.400;7.480;2022-09-27T03:34:40;14.10;99.90
851;DHT22;412;51.400;7.480;2022-09-27T03:37:06;14.00;99.90
851;DHT22;412;51.400;7.480;2022-09-27T03:39:33;14.00;99.90
851;DHT22;412;51.400;7.480;2022-09-27T03:41:59;14.00;99.90
851;DHT22;412;51.400;7.480;2022-09-27T03:44:24;14.00;99.90
851;DHT22;412;51.400;7.480;2022-09-27T03:46:50;14.00;99.90
851;DHT22;412;51.400;7.480;2022-09-27T03:49:16;14.10;99.90
851;DHT22;412;51.400;7.480;2022-09-27T03:51:42;14.10;99.90
851;DHT22;412;51.400;7.480;2022-09-27T03:54:08;14.10;99.90
851;DHT22;412;51.400;7.480;2022-09-27T03:56:34;14.10;99.90
851;DHT22;412;51.400;7.480;2022-09-27T03:59:02;14.10;99.90
851;DHT22;412;51.400;7.480;2022-09-27T04:01:28;14.00;99.90
851;DHT22;412;51.400;7.480;2022-09-27T04:03:54;14.00;99.90
851;DHT22;412;51.400;7.480;2022-09-27T04:06:20;13.90;99.90
851;DHT22;412;51.400;7.480;2022-09-27T04:08:47;13.90;99.90
851;DHT22;412;51.400;7.480;2022-09-27T04:11:13;13.90;99.90
851;DHT22;412;51.400;7.480;2022-09-27T04:13:40;13.90;99.90
851;DHT22;412;51.400;7.480;2022-09-27T04:16:06;13.90;99.90
851;DHT22;412;51.400;7.480;2022-09-27T04:18:32;13.90;99.90
851;DHT22;412;51.400;7.480;2022-09-27T04:20:58;13.90;99.90
851;DHT22;412;51.400;7.480;2022-09-27T04:23:23;13.90;99.90
851;DHT22;412;51.400;7.480;2022-09-27T04:25:49;13.90;99.90
851;DHT22;412;51.400;7.480;2022-09-27T04:28:15;13.90;99.90
851;DHT22;412;51.400;7.480;2022-09-27T04:30:41;13.90;99.90
851;DHT22;412;51.400;7.480;2022-09-27T04:33:07;13.90;99.90
851;DHT22;412;51.400;7.480;2022-09-27T04:35:32;13.90;99.90
851;DHT22;412;51.400;7.480;2022-09-27T04:38:17;13.90;99.90
851;DHT22;412;51.400;7.480;2022-09-27T04:40:45;13.90;99.90
851;DHT22;412;51.400;7.480;2022-09-27T04:43:13;13.90;99.90
851;DHT22;412;51.400;7.480;2022-09-27T04:45:39;13.90;99.90
851;DHT22;412;51.400;7.480;2022-09-27T04:48:04;13.90;99.90
851;DHT22;412;51.400;7.480;2022-09-27T04:50:30;13.90;99.90
851;DHT22;412;51.400;7.480;2022-09-27T04:52:57;13.90;99.90
851;DHT22;412;51.400;7.480;2022-09-27T04:55:22;13.80;99.90
851;DHT22;412;51.400;7.480;2022-09-27T04:57:48;13.90;99.90
851;DHT22;412;51.400;7.480;2022-09-27T05:00:14;13.90;99.90
851;DHT22;412;51.400;7.480;2022-09-27T05:02:42;13.80;99.90
851;DHT22;412;51.400;7.480;2022-09-27T05:05:09;13.80;99.90
851;DHT22;412;51.400;7.480;2022-09-27T05:07:36;13.80;99.90
851;DHT22;412;51.400;7.480;2022-09-27T05:10:03;13.90;99.90
851;DHT22;412;51.400;7.480;2022-09-27T05:12:28;13.90;99.90
851;DHT22;412;51.400;7.480;2022-09-27T05:14:54;13.90;99.90
851;DHT22;412;51.400;7.480;2022-09-27T05:17:22;13.80;99.90
851;DHT22;412;51.400;7.480;2022-09-27T05:19:49;13.80;99.90
851;DHT22;412;51.400;7.480;2022-09-27T05:22:15;13.80;99.90
851;DHT22;412;51.400;7.480;2022-09-27T05:24:41;13.70;99.90
851;DHT22;412;51.400;7.480;2022-09-27T05:27:08;13.60;99.90
851;DHT22;412;51.400;7.480;2022-09-27T05:29:37;13.60;99.90
851;DHT22;412;51.400;7.480;2022-09-27T05:32:03;13.60;99.90
851;DHT22;412;51.400;7.480;2022-09-27T05:34:28;13.60;99.90
851;DHT22;412;51.400;7.480;2022-09-27T05:36:57;13.60;99.90
851;DHT22;412;51.400;7.480;2022-09-27T05:39:23;13.60;99.90
851;DHT22;412;51.400;7.480;2022-09-27T05:41:48;13.50;99.90
851;DHT22;412;51.400;7.480;2022-09-27T05:44:15;13.50;99.90
851;DHT22;412;51.400;7.480;2022-09-27T05:46:41;13.60;99.90
851;DHT22;412;51.400;7.480;2022-09-27T05:49:07;13.60;99.90
851;DHT22;412;51.400;7.480;2022-09-27T05:51:33;13.60;99.90
851;DHT22;412;51.400;7.480;2022-09-27T05:53:58;13.60;99.90
851;DHT22;412;51.400;7.480;2022-09-27T05:56:24;13.70;99.90
851;DHT22;412;51.400;7.480;2022-09-27T05:58:50;13.70;99.90
851;DHT22;412;51.400;7.480;2022-09-27T06:01:16;13.70;99.90
851;DHT22;412;51.400;7.480;2022-09-27T06:03:42;13.70;99.90
851;DHT22;412;51.400;7.480;2022-09-27T06:06:08;13.70;99.90
851;DHT22;412;51.400;7.480;2022-09-27T06:08:37;13.60;99.90
851;DHT22;412;51.400;7.480;2022-09-27T06:11:08;13.60;99.90
851;DHT22;412;51.400;7.480;2022-09-27T06:13:35;13.60;99.90
851;DHT22;412;51.400;7.480;2022-09-27T06:16:02;13.50;99.90
851;DHT22;412;51.400;7.480;2022-09-27T06:18:28;13.50;99.90
851;DHT22;412;51.400;7.480;2022-09-27T06:20:54;13.50;99.90
851;DHT22;412;51.400;7.480;2022-09-27T06:23:21;13.50;99.90
851;DHT22;412;51.400;7.480;2022-09-27T06:25:49;13.60;99.90
851;DHT22;412;51.400;7.480;2022-09-27T06:28:16;13.60;99.90
851;DHT22;412;51.400;7.480;2022-09-27T06:30:44;13.60;99.90
851;DHT22;412;51.400;7.480;2022-09-27T06:33:15;13.60;99.90
851;DHT22;412;51.400;7.480;2022-09-27T06:35:41;13.60;99.90
851;DHT22;412;51.400;7.480;2022-09-27T06:38:13;13.50;99.90
851;DHT22;412;51.400;7.480;2022-09-27T06:40:41;13.70;99.90
851;DHT22;412;51.400;7.480;2022-09-27T06:43:12;14.10;99.90
851;DHT22;412;51.400;7.480;2022-09-27T06:45:38;14.40;99.90
851;DHT22;412;51.400;7.480;2022-09-27T06:48:05;14.80;99.90
851;DHT22;412;51.400;7.480;2022-09-27T06:50:36;15.00;99.90
851;DHT22;412;51.400;7.480;2022-09-27T06:53:06;15.20;99.90
851;DHT22;412;51.400;7.480;2022-09-27T06:55:33;15.50;99.90
851;DHT22;412;51.400;7.480;2022-09-27T06:58:00;15.70;99.90
851;DHT22;412;51.400;7.480;2022-09-27T07:00:49;15.90;99.90
851;DHT22;412;51.400;7.480;2022-09-27T07:03:15;16.10;99.90
851;DHT22;412;51.400;7.480;2022-09-27T07:05:41;16.20;99.90
851;DHT22;412;51.400;7.480;2022-09-27T07:08:09;16.30;99.90
851;DHT22;412;51.400;7.480;2022-09-27T07:10:37;16.40;99.90
851;DHT22;412;51.400;7.480;2022-09-27T07:13:04;16.50;99.90
851;DHT22;412;51.400;7.480;2022-09-27T07:15:30;16.50;99.90
851;DHT22;412;51.400;7.480;2022-09-27T07:17:58;16.60;99.90
851;DHT22;412;51.400;7.480;2022-09-27T07:20:25;16.70;99.90
851;DHT22;412;51.400;7.480;2022-09-27T07:22:51;16.70;99.90
851;DHT22;412;51.400;7.480;2022-09-27T07:25:17;16.70;99.90
851;DHT22;412;51.400;7.480;2022-09-27T07:27:43;16.60;99.20
851;DHT22;412;51.400;7.480;2022-09-27T07:30:10;16.50;99.80
851;DHT22;412;51.400;7.480;2022-09-27T07:32:36;16.50;99.70
851;DHT22;412;51.400;7.480;2022-09-27T07:35:04;16.50;99.50
851;DHT22;412;51.400;7.480;2022-09-27T07:37:34;16.40;99.70
851;DHT22;412;51.400;7.480;2022-09-27T07:40:01;16.40;99.00
851;DHT22;412;51.400;7.480;2022-09-27T07:42:27;16.40;99.90
851;DHT22;412;51.400;7.480;2022-09-27T07:44:56;16.30;98.40
851;DHT22;412;51.400;7.480;2022-09-27T07:47:23;16.00;98.20
851;DHT22;412;51.400;7.480;2022-09-27T07:49:50;15.70;99.10
851;DHT22;412;51.400;7.480;2022-09-27T07:52:18;15.50;99.10
851;DHT22;412;51.400;7.480;2022-09-27T07:54:44;15.20;99.10
851;DHT22;412;51.400;7.480;2022-09-27T07:57:10;14.90;99.90
851;DHT22;412;51.400;7.480;2022-09-27T07:59:36;14.70;99.90
851;DHT22;412;51.400;7.480;2022-09-27T08:02:02;14.50;99.90
851;DHT22;412;51.400;7.480;2022-09-27T08:04:28;14.30;99.90
851;DHT22;412;51.400;7.480;2022-09-27T08:06:54;14.20;99.90
851;DHT22;412;51.400;7.480;2022-09-27T08:09:19;14.10;99.90
851;DHT22;412;51.400;7.480;2022-09-27T08:11:45;14.00;99.90
851;DHT22;412;51.400;7.480;2022-09-27T08:14:11;13.90;99.90
851;DHT22;412;51.400;7.480;2022-09-27T08:16:40;13.80;99.90
851;DHT22;412;51.400;7.480;2022-09-27T08:19:06;13.70;99.90
851;DHT22;412;51.400;7.480;2022-09-27T08:21:32;13.60;99.90
851;DHT22;412;51.400;7.480;2022-09-27T08:23:57;13.50;99.90
851;DHT22;412;51.400;7.480;2022-09-27T08:26:26;13.50;99.90
851;DHT22;412;51.400;7.480;2022-09-27T08:28:52;13.50;99.90
851;DHT22;412;51.400;7.480;2022-09-27T08:31:18;13.50;99.90
851;DHT22;412;51.400;7.480;2022-09-27T08:33:48;13.40;99.90
851;DHT22;412;51.400;7.480;2022-09-27T08:36:14;13.40;99.90
851;DHT22;412;51.400;7.480;2022-09-27T08:38:40;13.20;99.90
851;DHT22;412;51.400;7.480;2022-09-27T08:43:47;13.30;99.90
851;DHT22;412;51.400;7.480;2022-09-27T08:48:51;13.20;99.90
851;DHT22;412;51.400;7.480;2022-09-27T08:51:28;13.10;99.90
851;DHT22;412;51.400;7.480;2022-09-27T08:54:13;13.10;99.90
851;DHT22;412;51.400;7.480;2022-09-27T08:56:43;13.00;99.90
851;DHT22;412;51.400;7.480;2022-09-27T08:59:13;13.00;99.90
851;DHT22;412;51.400;7.480;2022-09-27T09:01:40;13.00;99.90
851;DHT22;412;51.400;7.480;2022-09-27T09:04:08;13.00;99.90
851;DHT22;412;51.400;7.480;2022-09-27T09:06:59;13.00;99.90
851;DHT22;412;51.400;7.480;2022-09-27T09:34:26;16.20;99.90
851;DHT22;412;51.400;7.480;2022-09-27T09:37:33;16.40;99.70
851;DHT22;412;51.400;7.480;2022-09-27T09:42:37;16.00;99.00
851;DHT22;412;51.400;7.480;2022-09-27T09:45:15;16.00;99.90
851;DHT22;412;51.400;7.480;2022-09-27T09:50:54;16.30;99.30
851;DHT22;412;51.400;7.480;2022-09-27T09:53:32;16.30;99.20
851;DHT22;412;51.400;7.480;2022-09-27T09:56:14;16.30;98.40
851;DHT22;412;51.400;7.480;2022-09-27T09:58:49;16.40;98.50
851;DHT22;412;51.400;7.480;2022-09-27T10:01:20;16.40;98.40
851;DHT22;412;51.400;7.480;2022-09-27T10:03:47;16.60;97.60
851;DHT22;412;51.400;7.480;2022-09-27T10:06:15;16.40;97.30
851;DHT22;412;51.400;7.480;2022-09-27T10:08:41;15.70;99.30
851;DHT22;412;51.400;7.480;2022-09-27T10:11:28;15.40;99.90
851;DHT22;412;51.400;7.480;2022-09-27T10:13:56;15.60;99.90
851;DHT22;412;51.400;7.480;2022-09-27T10:16:22;15.60;99.90
851;DHT22;412;51.400;7.480;2022-09-27T10:18:54;15.80;99.90
851;DHT22;412;51.400;7.480;2022-09-27T10:21:25;15.60;99.00
851;DHT22;412;51.400;7.480;2022-09-27T10:24:06;15.40;99.40
851;DHT22;412;51.400;7.480;2022-09-27T10:26:34;15.20;99.90
851;DHT22;412;51.400;7.480;2022-09-27T10:31:46;14.80;99.90
851;DHT22;412;51.400;7.480;2022-09-27T10:34:33;14.70;99.90
851;DHT22;412;51.400;7.480;2022-09-27T10:39:34;14.50;99.90
851;DHT22;412;51.400;7.480;2022-09-27T10:42:01;14.30;99.90
851;DHT22;412;51.400;7.480;2022-09-27T10:44:29;14.30;99.90
851;DHT22;412;51.400;7.480;2022-09-27T10:47:05;14.30;99.90
851;DHT22;412;51.400;7.480;2022-09-27T10:49:36;14.10;99.90
851;DHT22;412;51.400;7.480;2022-09-27T10:52:06;14.30;99.90
851;DHT22;412;51.400;7.480;2022-09-27T10:54:35;14.80;99.90
851;DHT22;412;51.400;7.480;2022-09-27T10:57:17;15.30;99.90
851;DHT22;412;51.400;7.480;2022-09-27T10:59:49;15.60;99.90
851;DHT22;412;51.400;7.480;2022-09-27T11:02:35;15.70;99.90
851;DHT22;412;51.400;7.480;2022-09-27T11:07:58;15.90;99.90
851;DHT22;412;51.400;7.480;2022-09-27T11:10:33;16.00;99.90
851;DHT22;412;51.400;7.480;2022-09-27T11:13:07;16.10;99.50
851;DHT22;412;51.400;7.480;2022-09-27T11:21:18;16.30;98.70
851;DHT22;412;51.400;7.480;2022-09-27T11:24:23;16.50;97.90
851;DHT22;412;51.400;7.480;2022-09-27T11:27:06;16.70;97.40
851;DHT22;412;51.400;7.480;2022-09-27T11:30:03;16.80;96.70
851;DHT22;412;51.400;7.480;2022-09-27T11:38:30;16.80;96.60
851;DHT22;412;51.400;7.480;2022-09-27T12:05:33;16.40;97.40
851;DHT22;412;51.400;7.480;2022-09-27T12:08:28;16.60;95.80
851;DHT22;412;51.400;7.480;2022-09-27T12:13:50;16.50;96.90
851;DHT22;412;51.400;7.480;2022-09-27T12:16:18;16.70;96.50
851;DHT22;412;51.400;7.480;2022-09-27T12:18:45;16.60;97.00
851;DHT22;412;51.400;7.480;2022-09-27T12:21:12;16.80;96.40
851;DHT22;412;51.400;7.480;2022-09-27T12:26:23;16.90;96.10
851;DHT22;412;51.400;7.480;2022-09-27T12:29:13;16.90;95.60
851;DHT22;412;51.400;7.480;2022-09-27T12:31:53;16.90;95.70
851;DHT22;412;51.400;7.480;2022-09-27T12:37:21;16.70;94.50
851;DHT22;412;51.400;7.480;2022-09-27T12:39:57;16.50;95.50
851;DHT22;412;51.400;7.480;2022-09-27T12:42:31;16.50;96.20
851;DHT22;412;51.400;7.480;2022-09-27T12:44:58;16.30;96.90
851;DHT22;412;51.400;7.480;2022-09-27T12:53:04;16.90;93.90
851;DHT22;412;51.400;7.480;2022-09-27T12:56:08;16.70;95.30
851;DHT22;412;51.400;7.480;2022-09-27T13:01:28;16.20;95.80
851;DHT22;412;51.400;7.480;2022-09-27T13:04:34;16.10;97.10
851;DHT22;412;51.400;7.480;2022-09-27T13:12:49;16.20;96.80
851;DHT22;412;51.400;7.480;2022-09-27T13:15:35;16.30;96.90
851;DHT22;412;51.400;7.480;2022-09-27T13:18:03;16.30;96.80
851;DHT22;412;51.400;7.480;2022-09-27T13:25:59;16.60;96.70
851;DHT22;412;51.400;7.480;2022-09-27T13:46:57;16.50;98.00
851;DHT22;412;51.400;7.480;2022-09-27T13:49:29;16.60;97.70
851;DHT22;412;51.400;7.480;2022-09-27T13:51:59;16.30;98.50
851;DHT22;412;51.400;7.480;2022-09-27T13:54:38;16.10;98.90
851;DHT22;412;51.400;7.480;2022-09-27T13:57:06;16.00;99.30
851;DHT22;412;51.400;7.480;2022-09-27T13:59:51;16.00;99.80
851;DHT22;412;51.400;7.480;2022-09-27T14:02:27;16.10;99.90
851;DHT22;412;51.400;7.480;2022-09-27T14:04:55;16.20;99.80
851;DHT22;412;51.400;7.480;2022-09-27T14:07:48;16.10;99.80
851;DHT22;412;51.400;7.480;2022-09-27T14:10:17;16.10;99.90
851;DHT22;412;51.400;7.480;2022-09-27T14:12:46;16.20;99.90
851;DHT22;412;51.400;7.480;2022-09-27T14:15:27;16.10;99.60
851;DHT22;412;51.400;7.480;2022-09-27T14:18:13;15.90;99.90
851;DHT22;412;51.400;7.480;2022-09-27T14:20:44;16.10;99.90
851;DHT22;412;51.400;7.480;2022-09-27T14:23:22;16.20;99.60
851;DHT22;412;51.400;7.480;2022-09-27T14:25:50;16.00;99.80
851;DHT22;412;51.400;7.480;2022-09-27T14:28:30;16.00;99.70
851;DHT22;412;51.400;7.480;2022-09-27T14:31:22;16.20;99.20
851;DHT22;412;51.400;7.480;2022-09-27T14:33:49;16.10;98.90
851;DHT22;412;51.400;7.480;2022-09-27T14:36:31;16.20;99.40
851;DHT22;412;51.400;7.480;2022-09-27T14:39:24;16.10;99.20
851;DHT22;412;51.400;7.480;2022-09-27T14:41:57;16.20;99.00
851;DHT22;412;51.400;7.480;2022-09-27T14:44:23;16.20;99.30
851;DHT22;412;51.400;7.480;2022-09-27T14:47:14;16.10;99.50
851;DHT22;412;51.400;7.480;2022-09-27T14:49:49;16.00;99.90
851;DHT22;412;51.400;7.480;2022-09-27T14:52:18;16.20;99.90
851;DHT22;412;51.400;7.480;2022-09-27T14:54:57;16.10;99.90
851;DHT22;412;51.400;7.480;2022-09-27T14:57:25;16.20;99.90
851;DHT22;412;51.400;7.480;2022-09-27T14:59:52;16.40;99.90
851;DHT22;412;51.400;7.480;2022-09-27T15:02:19;16.10;99.90
851;DHT22;412;51.400;7.480;2022-09-27T15:04:47;16.00;99.90
851;DHT22;412;51.400;7.480;2022-09-27T15:07:16;16.00;99.90
851;DHT22;412;51.400;7.480;2022-09-27T15:09:44;15.80;99.90
851;DHT22;412;51.400;7.480;2022-09-27T15:12:14;15.80;99.90
851;DHT22;412;51.400;7.480;2022-09-27T15:14:40;15.70;99.90
851;DHT22;412;51.400;7.480;2022-09-27T15:17:16;15.70;99.90
851;DHT22;412;51.400;7.480;2022-09-27T15:19:55;15.50;99.90
851;DHT22;412;51.400;7.480;2022-09-27T15:24:48;15.60;99.90
851;DHT22;412;51.400;7.480;2022-09-27T15:27:23;15.60;99.90
851;DHT22;412;51.400;7.480;2022-09-27T15:29:51;15.60;99.90
851;DHT22;412;51.400;7.480;2022-09-27T15:32:20;15.80;99.90
851;DHT22;412;51.400;7.480;2022-09-27T15:34:47;15.70;99.90
851;DHT22;412;51.400;7.480;2022-09-27T15:37:37;15.90;99.90
851;DHT22;412;51.400;7.480;2022-09-27T15:42:59;16.10;98.80
851;DHT22;412;51.400;7.480;2022-09-27T15:45:31;16.10;99.60
851;DHT22;412;51.400;7.480;2022-09-27T15:48:18;16.00;99.70
851;DHT22;412;51.400;7.480;2022-09-27T15:50:45;16.00;99.50
851;DHT22;412;51.400;7.480;2022-09-27T15:53:12;15.90;98.90
851;DHT22;412;51.400;7.480;2022-09-27T15:55:53;15.80;98.90
851;DHT22;412;51.400;7.480;2022-09-27T15:58:20;15.60;99.90
851;DHT22;412;51.400;7.480;2022-09-27T16:00:54;15.60;99.90
851;DHT22;412;51.400;7.480;2022-09-27T16:03:20;15.60;99.70
851;DHT22;412;51.400;7.480;2022-09-27T16:05:46;15.60;99.90
851;DHT22;412;51.400;7.480;2022-09-27T16:08:12;15.70;99.90
851;DHT22;412;51.400;7.480;2022-09-27T16:10:40;15.70;99.90
851;DHT22;412;51.400;7.480;2022-09-27T16:13:07;15.80;99.90
851;DHT22;412;51.400;7.480;2022-09-27T16:15:33;15.80;99.90
851;DHT22;412;51.400;7.480;2022-09-27T16:17:59;15.90;99.90
851;DHT22;412;51.400;7.480;2022-09-27T16:20:26;15.90;99.70
851;DHT22;412;51.400;7.480;2022-09-27T16:22:53;15.90;99.90
851;DHT22;412;51.400;7.480;2022-09-27T16:25:20;16.00;99.30
851;DHT22;412;51.400;7.480;2022-09-27T16:27:46;15.80;99.10
851;DHT22;412;51.400;7.480;2022-09-27T16:30:13;15.60;99.20
851;DHT22;412;51.400;7.480;2022-09-27T16:32:40;15.50;99.10
851;DHT22;412;51.400;7.480;2022-09-27T16:35:06;15.40;99.40
851;DHT22;412;51.400;7.480;2022-09-27T16:37:33;15.20;99.90
851;DHT22;412;51.400;7.480;2022-09-27T16:39:59;15.10;99.90
851;DHT22;412;51.400;7.480;2022-09-27T16:42:25;15.00;99.90
851;DHT22;412;51.400;7.480;2022-09-27T16:44:52;14.80;99.90
851;DHT22;412;51.400;7.480;2022-09-27T16:47:18;14.70;99.90
851;DHT22;412;51.400;7.480;2022-09-27T16:49:44;14.60;99.90
851;DHT22;412;51.400;7.480;2022-09-27T16:52:29;14.50;99.90
851;DHT22;412;51.400;7.480;2022-09-27T16:54:58;14.50;99.90
851;DHT22;412;51.400;7.480;2022-09-27T16:57:25;14.40;99.90
851;DHT22;412;51.400;7.480;2022-09-27T16:59:53;14.30;99.90
851;DHT22;412;51.400;7.480;2022-09-27T17:02:23;14.20;99.90
851;DHT22;412;51.400;7.480;2022-09-27T17:04:50;14.10;99.90
851;DHT22;412;51.400;7.480;2022-09-27T17:07:16;14.00;99.90
851;DHT22;412;51.400;7.480;2022-09-27T17:09:42;13.90;99.90
851;DHT22;412;51.400;7.480;2022-09-27T17:12:08;13.90;99.90
851;DHT22;412;51.400;7.480;2022-09-27T17:14:33;13.80;99.90
851;DHT22;412;51.400;7.480;2022-09-27T17:16:59;13.80;99.90
851;DHT22;412;51.400;7.480;2022-09-27T17:19:25;13.80;99.90
851;DHT22;412;51.400;7.480;2022-09-27T17:21:51;13.80;99.90
851;DHT22;412;51.400;7.480;2022-09-27T17:24:16;13.70;99.90
851;DHT22;412;51.400;7.480;2022-09-27T17:26:42;13.70;99.90
851;DHT22;412;51.400;7.480;2022-09-27T17:29:11;13.60;99.90
851;DHT22;412;51.400;7.480;2022-09-27T17:31:39;13.60;99.90
851;DHT22;412;51.400;7.480;2022-09-27T17:34:06;13.60;99.90
851;DHT22;412;51.400;7.480;2022-09-27T17:36:33;13.50;99.90
851;DHT22;412;51.400;7.480;2022-09-27T17:38:59;13.60;99.90
851;DHT22;412;51.400;7.480;2022-09-27T17:41:27;13.60;99.90
851;DHT22;412;51.400;7.480;2022-09-27T17:43:58;13.50;99.90
851;DHT22;412;51.400;7.480;2022-09-27T17:46:29;13.40;99.90
851;DHT22;412;51.400;7.480;2022-09-27T17:48:56;13.40;99.90
851;DHT22;412;51.400;7.480;2022-09-27T17:51:42;13.40;99.90
851;DHT22;412;51.400;7.480;2022-09-27T17:54:10;13.40;99.90
851;DHT22;412;51.400;7.480;2022-09-27T17:56:39;13.40;99.90
851;DHT22;412;51.400;7.480;2022-09-27T17:59:06;13.40;99.90
851;DHT22;412;51.400;7.480;2022-09-27T18:01:32;13.40;99.90
851;DHT22;412;51.400;7.480;2022-09-27T18:03:59;13.30;99.90
851;DHT22;412;51.400;7.480;2022-09-27T18:06:27;13.30;99.90
851;DHT22;412;51.400;7.480;2022-09-27T18:08:54;13.30;99.90
851;DHT22;412;51.400;7.480;2022-09-27T18:11:23;13.30;99.90
851;DHT22;412;51.400;7.480;2022-09-27T18:13:56;13.30;99.90
851;DHT22;412;51.400;7.480;2022-09-27T18:16:33;13.20;99.90
851;DHT22;412;51.400;7.480;2022-09-27T18:19:03;13.20;99.90
851;DHT22;412;51.400;7.480;2022-09-27T18:21:29;13.30;99.90
851;DHT22;412;51.400;7.480;2022-09-27T18:23:59;13.20;99.90
851;DHT22;412;51.400;7.480;2022-09-27T18:26:27;13.20;99.90
851;DHT22;412;51.400;7.480;2022-09-27T18:29:07;13.10;99.90
851;DHT22;412;51.400;7.480;2022-09-27T18:31:34;13.00;99.90
851;DHT22;412;51.400;7.480;2022-09-27T18:34:00;13.00;99.90
851;DHT22;412;51.400;7.480;2022-09-27T18:36:27;13.00;99.90
851;DHT22;412;51.400;7.480;2022-09-27T18:38:55;12.90;99.90
851;DHT22;412;51.400;7.480;2022-09-27T18:41:22;12.90;99.90
851;DHT22;412;51.400;7.480;2022-09-27T18:43:52;12.90;99.90
851;DHT22;412;51.400;7.480;2022-09-27T18:46:22;12.90;99.90
851;DHT22;412;51.400;7.480;2022-09-27T18:48:48;12.80;99.90
851;DHT22;412;51.400;7.480;2022-09-27T18:51:19;12.80;99.90
851;DHT22;412;51.400;7.480;2022-09-27T18:53:46;12.90;99.90
851;DHT22;412;51.400;7.480;2022-09-27T18:56:16;12.80;99.90
851;DHT22;412;51.400;7.480;2022-09-27T18:58:43;12.90;99.90
851;DHT22;412;51.400;7.480;2022-09-27T19:01:11;12.80;99.90
851;DHT22;412;51.400;7.480;2022-09-27T19:03:36;12.80;99.90
851;DHT22;412;51.400;7.480;2022-09-27T19:06:05;12.80;99.90
851;DHT22;412;51.400;7.480;2022-09-27T19:08:32;12.70;99.90
851;DHT22;412;51.400;7.480;2022-09-27T19:11:09;12.70;99.90
851;DHT22;412;51.400;7.480;2022-09-27T19:13:35;12.70;99.90
851;DHT22;412;51.400;7.480;2022-09-27T19:16:01;12.70;99.90
851;DHT22;412;51.400;7.480;2022-09-27T19:18:28;12.70;99.90
851;DHT22;412;51.400;7.480;2022-09-27T19:21:00;12.70;99.90
851;DHT22;412;51.400;7.480;2022-09-27T19:23:26;12.80;99.90
851;DHT22;412;51.400;7.480;2022-09-27T19:25:51;12.80;99.90
851;DHT22;412;51.400;7.480;2022-09-27T19:28:17;12.70;99.90
851;DHT22;412;51.400;7.480;2022-09-27T19:30:44;12.70;99.90
851;DHT22;412;51.400;7.480;2022-09-27T19:33:10;12.70;99.90
851;DHT22;412;51.400;7.480;2022-09-27T19:35:36;12.70;99.90
851;DHT22;412;51.400;7.480;2022-09-27T19:38:02;12.70;99.90
851;DHT22;412;51.400;7.480;2022-09-27T19:40:28;12.70;99.90
851;DHT22;412;51.400;7.480;2022-09-27T19:42:56;12.70;99.90
851;DHT22;412;51.400;7.480;2022-09-27T19:45:22;12.70;99.90
851;DHT22;412;51.400;7.480;2022-09-27T19:47:48;12.80;99.90